Friday, December 14, 2018, 7:36 PM EST
Back to Local

KBDL, Bradley International Airport

Location: Windsor Locks, CT, United States Lat: 41.933
Local Time: 7:36 PM EST ( 0:36 GMT) Lon: -72.683
Time Zone: US/Eastern Elev: 173 ft

Show me the last for .
Show Decoded

2018-12-14 19:25 METAR KBDL 150025Z 22003KT 10SM OVC013 04/00 A3032 RMK AO2 T00390000 =
2018-12-14 18:51 METAR KBDL 142351Z 00000KT 10SM OVC015 04/M01 A3033 RMK AO2 SLP271 T00391006
                 10044 20033 58017 =
2018-12-14 17:51 METAR KBDL 142251Z 00000KT 10SM OVC017 04/M01 A3035 RMK AO2 SLP279 T00391006 =
2018-12-14 16:51 METAR KBDL 142151Z 00000KT 10SM BKN019 OVC033 04/M01 A3037 RMK AO2 SLP287
                 T00391006 =
2018-12-14 15:51 METAR KBDL 142051Z 00000KT 10SM OVC031 04/M01 A3038 RMK AO2 SLP289 T00441006
                 58007 =
2018-12-14 15:28 METAR KBDL 142028Z 00000KT 10SM OVC030 04/M01 A3038 RMK AO2 T00441006 =
2018-12-14 14:51 METAR KBDL 141951Z 00000KT 10SM OVC026 04/M01 A3039 RMK AO2 SLP292 T00441006 =
2018-12-14 14:10 METAR KBDL 141910Z 00000KT 10SM BKN026 OVC050 04/M01 A3039 RMK AO2 T00441006 =
2018-12-14 13:51 METAR KBDL 141851Z 00000KT 10SM BKN032 BKN050 BKN250 04/M01 A3039 RMK AO2 SLP294
                 T00441006 =
2018-12-14 12:51 METAR KBDL 141751Z VRB03KT 10SM OVC055 04/M02 A3040 RMK AO2 SLP296 T00391017
                 10039 21022 58045 =
2018-12-14 12:29 METAR KBDL 141729Z 06003KT 10SM SCT024 SCT037 OVC055 03/M02 A3042 RMK AO2 PRESFR
                 T00331017 =
2018-12-14 11:51 METAR KBDL 141651Z 00000KT 10SM BKN024 OVC055 03/M02 A3046 RMK AO2 SLP317
                 T00281017 =
2018-12-14 10:57 METAR KBDL 141557Z 00000KT 10SM BKN024 OVC065 02/M03 A3049 =
2018-12-14 10:51 METAR KBDL 141551Z 09003KT 10SM SCT024 BKN065 02/M03 A3050 RMK AO2 PRESFR SLP328
                 T00221028 =
2018-12-14 09:51 METAR KBDL 141451Z 00000KT 10SM FEW020 BKN250 01/M03 A3053 RMK AO2 SLP341
                 T00111033 53008 =
2018-12-14 09:37 METAR KBDL 141437Z 06003KT 10SM SCT018 BKN250 00/M04 A3053 RMK AO2 T00001039 =
2018-12-14 08:51 METAR KBDL 141351Z 02004KT 10SM BKN017 OVC035 M01/M04 A3052 RMK AO2 SLP337
                 T10111044 =
2018-12-14 07:51 METAR KBDL 141251Z 00000KT 10SM BKN017 OVC040 M02/M04 A3052 RMK AO2 SLP337
                 T10171044 =
2018-12-14 06:51 METAR KBDL 141151Z 00000KT 10SM BKN018 BKN039 M02/M05 A3051 RMK AO2 SLP334 60000
                 70001 T10221050 11017 21033 55003 =
2018-12-14 05:51 METAR KBDL 141051Z 00000KT 10SM FEW019 BKN037 M02/M05 A3051 RMK AO2 SLP334
                 T10221050 =
2018-12-14 04:51 METAR KBDL 140951Z 00000KT 10SM FEW018 OVC037 M02/M05 A3051 RMK AO2 SLP334
                 T10221050 =
2018-12-14 03:51 METAR KBDL 140851Z 31004KT 10SM SCT020 OVC042 M02/M05 A3052 RMK AO2 SLP338 60000
                 T10221050 56009 =
2018-12-14 03:33 METAR KBDL 140833Z 34003KT 10SM SCT019 OVC043 M02/M05 A3051 RMK AO2 T10221050 =
2018-12-14 03:04 METAR KBDL 140804Z 36004KT 10SM BKN019 OVC044 M02/M05 A3052 RMK AO2 BKN V SCT
                 T10221050 =
2018-12-14 02:51 METAR KBDL 140751Z 36005KT 10SM SCT019 OVC044 M02/M05 A3052 RMK AO2 SLP338
                 T10221050 =
2018-12-14 02:06 METAR KBDL 140706Z 00000KT 10SM BKN018 OVC048 M03/M05 A3054 RMK AO2 BINOVC
                 T10281050 =
2018-12-14 01:51 METAR KBDL 140651Z 36004KT 10SM FEW020 BKN046 M03/M05 A3054 RMK AO2 SNE10 SLP343
                 P0000 T10331050 =
2018-12-14 01:36 METAR KBDL 140636Z 02005KT 10SM SCT020 OVC045 M03/M04 A3054 RMK AO2 SNE10 P0000
                 T10281044 =
2018-12-14 00:51 METAR KBDL 140551Z 36004KT 8SM -SN OVC020 M03/M04 A3055 RMK AO2 SNB12 SLP347
                 P0000 60000 T10281044 11028 21033 50000 =
2018-12-13 23:51 METAR KBDL 140451Z 35003KT 10SM OVC020 M03/M05 A3055 RMK AO2 SLP348 T10281050
                 410281067 =
2018-12-13 22:51 METAR KBDL 140351Z 01005KT 10SM OVC023 M03/M05 A3055 RMK AO2 SLP348 T10281050 =
2018-12-13 21:51 METAR KBDL 140251Z 35004KT 10SM OVC023 M03/M05 A3055 RMK AO2 SLP347 60000
                 T10281050 51008 =
2018-12-13 20:51 METAR KBDL 140151Z 36005KT 10SM OVC023 M03/M05 A3055 RMK AO2 SLP346 T10331050 =
2018-12-13 19:51 METAR KBDL 140051Z 35005KT 10SM OVC022 M03/M05 A3054 RMK AO2 SNE35 SLP343 P0000
                 T10331050 =

Support USWX by starting your Amazon purchase here.